createdAt,value
2017-12-16T00:00:14.700Z,77.30
2017-12-16T00:02:49.135Z,77.10
2017-12-16T00:05:23.096Z,77.40
2017-12-16T00:07:56.777Z,77.40
2017-12-16T00:10:31.325Z,78.10
2017-12-16T00:13:06.296Z,78.30
2017-12-16T00:15:40.336Z,77.80
2017-12-16T00:18:14.826Z,79.00
2017-12-16T00:20:48.781Z,78.40
2017-12-16T00:23:22.742Z,78.00
2017-12-16T00:25:57.288Z,77.90
2017-12-16T00:28:30.972Z,78.20
2017-12-16T00:31:04.884Z,78.00
2017-12-16T00:33:39.279Z,78.40
2017-12-16T00:36:13.699Z,77.90
2017-12-16T00:38:48.007Z,78.70
2017-12-16T00:41:22.921Z,79.10
2017-12-16T00:43:56.934Z,77.80
2017-12-16T00:46:30.764Z,77.60
2017-12-16T00:49:05.264Z,78.20
2017-12-16T00:51:40.434Z,78.10
2017-12-16T00:54:14.902Z,78.00
2017-12-16T00:56:49.271Z,77.40
2017-12-16T00:59:23.436Z,77.40
2017-12-16T01:01:58.483Z,77.70
2017-12-16T01:04:33.565Z,77.70
2017-12-16T01:07:07.986Z,77.10
2017-12-16T01:09:42.264Z,77.60
2017-12-16T01:12:16.606Z,77.60
2017-12-16T01:14:50.453Z,77.70
2017-12-16T01:17:24.605Z,77.60
2017-12-16T01:19:58.211Z,77.60
2017-12-16T01:22:31.914Z,78.00
2017-12-16T01:25:06.530Z,78.40
2017-12-16T01:27:41.491Z,78.50
2017-12-16T01:30:16.329Z,78.90
2017-12-16T01:32:50.429Z,78.40
2017-12-16T01:35:36.697Z,80.00
2017-12-16T01:38:33.383Z,79.00
2017-12-16T01:41:07.909Z,79.10
2017-12-16T01:43:41.570Z,80.10
2017-12-16T01:46:15.245Z,80.50
2017-12-16T01:48:49.224Z,80.40
2017-12-16T01:51:23.229Z,80.40
2017-12-16T01:53:57.661Z,80.70
2017-12-16T01:56:31.730Z,80.60
2017-12-16T01:59:05.706Z,80.50
2017-12-16T02:01:40.372Z,81.40
2017-12-16T02:04:14.278Z,81.40
2017-12-16T02:06:49.136Z,82.00
2017-12-16T02:09:22.936Z,82.00
2017-12-16T02:11:57.568Z,82.10
2017-12-16T02:14:31.611Z,82.10
2017-12-16T02:17:05.385Z,81.90
2017-12-16T02:19:39.647Z,80.80
2017-12-16T02:22:14.913Z,81.50
2017-12-16T02:24:50.153Z,80.70
2017-12-16T02:27:23.880Z,80.60
2017-12-16T02:29:58.180Z,80.90
2017-12-16T02:32:31.853Z,80.70
2017-12-16T02:35:06.475Z,80.40
2017-12-16T02:37:40.653Z,80.00
2017-12-16T02:40:14.342Z,79.80
2017-12-16T02:42:48.144Z,79.70
2017-12-16T02:45:21.864Z,79.90
2017-12-16T02:47:55.642Z,80.20
2017-12-16T02:50:30.364Z,80.10
2017-12-16T02:53:04.414Z,80.00
2017-12-16T02:55:38.639Z,79.30
2017-12-16T02:58:12.912Z,79.70
2017-12-16T03:00:46.684Z,79.90
2017-12-16T03:03:21.331Z,80.00
2017-12-16T03:05:55.294Z,79.70
2017-12-16T03:08:29.249Z,80.10
2017-12-16T03:11:03.797Z,80.90
2017-12-16T03:13:38.306Z,80.80
2017-12-16T03:16:13.718Z,81.10
2017-12-16T03:18:48.691Z,81.30
2017-12-16T03:21:22.560Z,81.40
2017-12-16T03:23:56.445Z,81.10
2017-12-16T03:26:31.093Z,81.00
2017-12-16T03:29:05.352Z,81.30
2017-12-16T03:31:39.121Z,81.60
2017-12-16T03:34:14.281Z,82.40
2017-12-16T03:36:47.994Z,82.00
2017-12-16T03:39:22.460Z,82.10
2017-12-16T03:41:56.633Z,82.30
2017-12-16T03:44:30.180Z,83.00
2017-12-16T03:47:03.964Z,83.00
2017-12-16T03:49:37.972Z,82.60
2017-12-16T03:52:12.666Z,83.30
2017-12-16T03:54:46.609Z,83.30
2017-12-16T03:57:20.506Z,83.50
2017-12-16T03:59:54.032Z,82.90
2017-12-16T04:02:27.948Z,83.20
2017-12-16T04:05:01.887Z,83.60
2017-12-16T04:07:35.577Z,83.40
2017-12-16T04:10:10.124Z,82.70
2017-12-16T04:12:44.029Z,82.70
2017-12-16T04:15:18.087Z,83.10
2017-12-16T04:17:51.790Z,81.60
2017-12-16T04:20:25.559Z,81.60
2017-12-16T04:23:00.157Z,81.70
2017-12-16T04:25:34.211Z,81.20
2017-12-16T04:28:08.898Z,82.20
2017-12-16T04:30:43.055Z,81.90
2017-12-16T04:33:17.620Z,81.00
2017-12-16T04:35:51.687Z,81.40
2017-12-16T04:38:25.669Z,81.20
2017-12-16T04:40:59.478Z,80.80
2017-12-16T04:43:33.512Z,80.10
2017-12-16T04:46:08.101Z,80.30
2017-12-16T04:48:43.034Z,80.30
2017-12-16T04:51:16.910Z,80.10
2017-12-16T04:53:50.908Z,79.80
2017-12-16T04:56:25.390Z,80.60
2017-12-16T04:58:59.996Z,80.10
2017-12-16T05:01:33.928Z,79.40
2017-12-16T05:04:07.806Z,79.80
2017-12-16T05:06:42.662Z,80.40
2017-12-16T05:09:17.220Z,79.90
2017-12-16T05:11:51.759Z,80.40
2017-12-16T05:14:26.813Z,79.70
2017-12-16T05:17:00.787Z,79.40
2017-12-16T05:19:35.525Z,79.90
2017-12-16T05:22:09.561Z,79.80
2017-12-16T05:24:44.436Z,80.20
2017-12-16T05:27:18.491Z,79.90
2017-12-16T05:29:52.142Z,80.00
2017-12-16T05:32:26.242Z,79.70
2017-12-16T05:35:00.156Z,79.80
2017-12-16T05:37:34.853Z,80.00
2017-12-16T05:40:09.029Z,79.50
2017-12-16T05:42:43.520Z,80.30
2017-12-16T05:45:17.416Z,80.20
2017-12-16T05:47:52.026Z,80.80
2017-12-16T05:50:27.082Z,80.50
2017-12-16T05:53:01.146Z,79.80
2017-12-16T05:55:35.787Z,81.10
2017-12-16T05:58:10.512Z,80.50
2017-12-16T06:00:44.649Z,80.20
2017-12-16T06:03:18.790Z,80.70
2017-12-16T06:05:53.471Z,80.60
2017-12-16T06:08:27.416Z,80.60
2017-12-16T06:11:01.913Z,81.10
2017-12-16T06:13:35.873Z,80.60
2017-12-16T06:16:09.631Z,80.40
2017-12-16T06:18:43.318Z,80.70
2017-12-16T06:21:17.944Z,80.60
2017-12-16T06:23:51.973Z,80.20
2017-12-16T06:26:25.785Z,80.70
2017-12-16T06:29:00.354Z,80.70
2017-12-16T06:31:34.613Z,80.10
2017-12-16T06:34:09.089Z,80.70
2017-12-16T06:36:43.933Z,80.50
2017-12-16T06:39:18.654Z,80.60
2017-12-16T06:41:53.736Z,80.30
2017-12-16T06:44:27.786Z,79.90
2017-12-16T06:47:01.591Z,80.40
2017-12-16T06:49:35.494Z,79.80
2017-12-16T06:52:09.285Z,79.80
2017-12-16T06:54:43.019Z,80.10
2017-12-16T06:57:16.858Z,80.00
2017-12-16T06:59:51.423Z,80.50
2017-12-16T07:02:25.618Z,80.50
2017-12-16T07:04:59.442Z,80.50
2017-12-16T07:07:34.017Z,80.60
2017-12-16T07:10:08.601Z,79.90
2017-12-16T07:12:43.157Z,80.40
2017-12-16T07:15:17.420Z,80.00
2017-12-16T07:17:51.168Z,80.40
2017-12-16T07:20:24.843Z,79.60
2017-12-16T07:22:59.396Z,80.00
2017-12-16T07:25:35.071Z,80.20
2017-12-16T07:28:10.003Z,80.40
2017-12-16T07:30:44.256Z,80.50
2017-12-16T07:33:18.022Z,80.90
2017-12-16T07:35:51.948Z,81.20
2017-12-16T07:38:26.053Z,80.90
2017-12-16T07:40:59.604Z,81.00
2017-12-16T07:43:33.490Z,80.50
2017-12-16T07:46:07.183Z,80.80
2017-12-16T07:48:41.202Z,80.50
2017-12-16T07:51:15.729Z,81.00
2017-12-16T07:53:49.897Z,80.60
2017-12-16T07:56:23.631Z,80.10
2017-12-16T07:58:57.964Z,80.10
2017-12-16T08:01:32.440Z,80.00
2017-12-16T08:04:07.434Z,80.00
2017-12-16T08:06:41.068Z,79.90
2017-12-16T08:09:15.121Z,79.90
2017-12-16T08:11:49.671Z,80.40
2017-12-16T08:14:24.756Z,80.60
2017-12-16T08:16:58.902Z,79.80
2017-12-16T08:19:33.041Z,79.80
2017-12-16T08:22:07.580Z,80.40
2017-12-16T08:24:41.160Z,79.60
2017-12-16T08:27:16.008Z,80.00
2017-12-16T08:29:50.077Z,79.40
2017-12-16T08:32:24.669Z,79.60
2017-12-16T08:34:58.471Z,78.70
2017-12-16T08:37:32.273Z,78.60
2017-12-16T08:40:05.950Z,78.60
2017-12-16T08:42:39.782Z,78.60
2017-12-16T08:45:14.489Z,79.10
2017-12-16T08:47:48.477Z,78.50
2017-12-16T08:50:22.204Z,78.90
2017-12-16T08:52:56.863Z,78.50
2017-12-16T08:55:30.943Z,78.00
2017-12-16T08:58:04.970Z,78.20
2017-12-16T09:00:39.442Z,77.90
2017-12-16T09:03:14.215Z,77.60
2017-12-16T09:05:49.041Z,77.30
2017-12-16T09:08:23.206Z,77.30
2017-12-16T09:10:57.105Z,77.10
2017-12-16T09:13:30.740Z,76.90
2017-12-16T09:16:05.188Z,76.80
2017-12-16T09:18:39.315Z,76.90
2017-12-16T09:21:14.066Z,78.00
2017-12-16T09:23:48.129Z,77.30
2017-12-16T09:26:22.137Z,77.50
2017-12-16T09:28:55.904Z,77.30
2017-12-16T09:31:30.877Z,77.80
2017-12-16T09:34:05.176Z,77.70
2017-12-16T09:36:40.137Z,78.40
2017-12-16T09:39:14.595Z,78.40
2017-12-16T09:41:48.305Z,79.00
2017-12-16T09:44:22.096Z,77.60
2017-12-16T09:46:55.886Z,78.20
2017-12-16T09:49:30.614Z,77.30
2017-12-16T09:52:05.140Z,76.70
2017-12-16T09:54:39.909Z,76.80
2017-12-16T09:57:14.025Z,76.70
2017-12-16T09:59:47.785Z,76.20
2017-12-16T10:02:21.577Z,76.20
2017-12-16T10:04:56.206Z,75.60
2017-12-16T10:07:30.256Z,75.00
2017-12-16T10:10:04.702Z,74.60
2017-12-16T10:12:38.830Z,74.60
2017-12-16T10:15:13.369Z,74.40
2017-12-16T10:17:47.042Z,73.90
2017-12-16T10:20:21.087Z,73.60
2017-12-16T10:22:55.224Z,73.80
2017-12-16T10:25:28.873Z,74.10
2017-12-16T10:28:02.812Z,74.00
2017-12-16T10:30:37.242Z,73.70
2017-12-16T10:33:11.125Z,74.40
2017-12-16T10:35:45.640Z,74.20
2017-12-16T10:38:19.312Z,74.20
2017-12-16T10:40:53.074Z,74.20
2017-12-16T10:43:26.784Z,74.60
2017-12-16T10:46:00.589Z,73.80
2017-12-16T10:48:35.152Z,74.30
2017-12-16T10:51:09.408Z,74.30
2017-12-16T10:53:43.373Z,73.90
2017-12-16T10:56:17.098Z,73.30
2017-12-16T10:58:50.855Z,73.40
2017-12-16T11:01:24.976Z,73.50
2017-12-16T11:03:58.941Z,74.10
2017-12-16T11:06:32.839Z,74.40
2017-12-16T11:09:06.795Z,72.80
2017-12-16T11:11:40.809Z,73.10
2017-12-16T11:14:14.782Z,73.10
2017-12-16T11:16:48.526Z,72.60
2017-12-16T11:19:23.137Z,72.10
2017-12-16T11:21:57.223Z,73.50
2017-12-16T11:24:30.927Z,72.20
2017-12-16T11:27:05.555Z,72.30
2017-12-16T11:29:39.872Z,72.30
2017-12-16T11:32:13.534Z,72.00
2017-12-16T11:34:47.382Z,71.70
2017-12-16T11:37:21.185Z,71.50
2017-12-16T11:39:54.934Z,72.20
2017-12-16T11:42:29.975Z,72.60
2017-12-16T11:45:04.544Z,72.00
2017-12-16T11:47:38.266Z,71.40
2017-12-16T11:50:12.129Z,71.00
2017-12-16T11:52:45.979Z,71.50
2017-12-16T11:55:19.804Z,71.10
2017-12-16T11:57:53.735Z,71.70
2017-12-16T12:00:27.908Z,71.60
2017-12-16T12:03:01.747Z,71.20
2017-12-16T12:05:35.918Z,69.50
2017-12-16T12:08:09.517Z,68.30
2017-12-16T12:10:43.219Z,68.30
2017-12-16T12:13:16.971Z,68.40
2017-12-16T12:15:50.808Z,69.10
2017-12-16T12:18:24.619Z,69.20
2017-12-16T12:20:58.602Z,69.60
2017-12-16T12:23:33.829Z,69.50
2017-12-16T12:26:07.761Z,69.00
2017-12-16T12:28:42.416Z,69.50
2017-12-16T12:31:17.042Z,69.80
2017-12-16T12:33:50.960Z,69.30
2017-12-16T12:36:25.559Z,69.40
2017-12-16T12:38:59.705Z,69.40
2017-12-16T12:41:33.613Z,69.80
2017-12-16T12:44:07.178Z,70.40
2017-12-16T12:46:40.889Z,70.40
2017-12-16T12:49:15.468Z,71.10
2017-12-16T12:51:49.502Z,71.10
2017-12-16T12:54:23.936Z,71.20
2017-12-16T12:56:58.077Z,70.60
2017-12-16T12:59:32.603Z,71.00
2017-12-16T13:02:06.504Z,71.00
2017-12-16T13:04:40.289Z,69.70
2017-12-16T13:07:14.003Z,69.70
2017-12-16T13:09:47.880Z,69.70
2017-12-16T13:12:22.420Z,71.10
2017-12-16T13:14:56.677Z,69.50
2017-12-16T13:17:30.350Z,69.50
2017-12-16T13:20:05.713Z,70.10
2017-12-16T13:22:41.547Z,71.50
2017-12-16T13:25:16.705Z,71.10
2017-12-16T13:27:51.525Z,70.40
2017-12-16T13:30:26.335Z,71.10
2017-12-16T13:33:00.490Z,70.40
2017-12-16T13:35:34.477Z,70.40
2017-12-16T13:38:08.241Z,70.80
2017-12-16T13:40:42.088Z,71.00
2017-12-16T13:43:16.017Z,71.50
2017-12-16T13:45:50.652Z,71.50
2017-12-16T13:48:24.774Z,70.50
2017-12-16T13:50:58.560Z,70.80
2017-12-16T13:53:34.049Z,71.50
2017-12-16T13:56:08.538Z,70.70
2017-12-16T13:58:42.281Z,71.20
2017-12-16T14:01:16.923Z,70.90
2017-12-16T14:03:50.936Z,69.90
2017-12-16T14:06:24.766Z,69.30
2017-12-16T14:08:58.499Z,69.60
2017-12-16T14:11:32.555Z,70.00
2017-12-16T14:14:07.266Z,70.40
2017-12-16T14:16:41.194Z,69.70
2017-12-16T14:19:15.351Z,70.40
2017-12-16T14:21:49.537Z,70.40
2017-12-16T14:24:23.650Z,70.70
2017-12-16T14:26:57.428Z,70.80
2017-12-16T14:29:32.064Z,70.50
2017-12-16T14:32:06.126Z,70.40
2017-12-16T14:34:39.982Z,70.50
2017-12-16T14:37:13.891Z,70.20
2017-12-16T14:39:47.706Z,70.70
2017-12-16T14:42:21.552Z,70.90
2017-12-16T14:44:55.512Z,71.20
2017-12-16T14:47:29.072Z,71.50
2017-12-16T14:50:02.938Z,71.80
2017-12-16T14:52:37.405Z,72.20
2017-12-16T14:55:13.031Z,72.60
2017-12-16T14:57:47.402Z,72.50
2017-12-16T15:00:22.029Z,72.50
2017-12-16T15:02:56.131Z,72.50
2017-12-16T15:05:30.060Z,72.30
2017-12-16T15:08:04.208Z,72.00
2017-12-16T15:10:38.175Z,71.80
2017-12-16T15:13:12.087Z,71.80
2017-12-16T15:15:45.964Z,72.10
2017-12-16T15:18:20.633Z,72.80
2017-12-16T15:20:54.736Z,72.70
2017-12-16T15:23:28.625Z,72.90
2017-12-16T15:26:02.643Z,73.10
2017-12-16T15:28:37.146Z,73.20
2017-12-16T15:31:11.644Z,73.30
2017-12-16T15:33:45.493Z,73.20
2017-12-16T15:36:20.003Z,73.10
2017-12-16T15:38:54.167Z,72.90
2017-12-16T15:41:28.630Z,73.80
2017-12-16T15:44:03.487Z,72.90
2017-12-16T15:46:37.571Z,72.90
2017-12-16T15:49:12.026Z,72.80
2017-12-16T15:51:46.436Z,73.10
2017-12-16T15:54:20.348Z,73.30
2017-12-16T15:56:54.011Z,73.40
2017-12-16T15:59:28.092Z,73.20
2017-12-16T16:02:02.613Z,73.10
2017-12-16T16:04:36.612Z,73.10
2017-12-16T16:07:10.609Z,72.80
2017-12-16T16:09:44.357Z,72.80
2017-12-16T16:12:18.312Z,72.80
2017-12-16T16:14:53.319Z,72.70
2017-12-16T16:17:27.787Z,73.10
2017-12-16T16:20:01.510Z,73.30
2017-12-16T16:22:35.437Z,72.90
2017-12-16T16:25:09.976Z,72.60
2017-12-16T16:27:43.653Z,72.70
2017-12-16T16:30:17.533Z,73.00
2017-12-16T16:32:51.358Z,73.30
2017-12-16T16:35:25.147Z,73.10
2017-12-16T16:37:59.222Z,72.90
2017-12-16T16:40:32.898Z,73.10
2017-12-16T16:43:06.764Z,73.40
2017-12-16T16:45:40.532Z,73.50
2017-12-16T16:48:14.384Z,73.80
2017-12-16T16:50:49.102Z,73.90
2017-12-16T16:53:23.369Z,73.80
2017-12-16T16:55:58.055Z,74.50
2017-12-16T16:58:32.958Z,75.20
2017-12-16T17:01:07.060Z,75.20
2017-12-16T17:03:41.273Z,75.40
2017-12-16T17:06:14.989Z,76.10
2017-12-16T17:08:48.940Z,76.50
2017-12-16T17:11:22.687Z,76.70
2017-12-16T17:13:57.287Z,77.10
2017-12-16T17:16:31.533Z,77.10
2017-12-16T17:19:06.165Z,77.00
2017-12-16T17:21:40.208Z,76.80
2017-12-16T17:24:15.013Z,76.70
2017-12-16T17:26:49.152Z,76.70
2017-12-16T17:29:23.641Z,76.30
2017-12-16T17:31:57.721Z,76.30
2017-12-16T17:34:31.914Z,75.40
2017-12-16T17:37:05.608Z,75.50
2017-12-16T17:39:39.489Z,76.00
2017-12-16T17:42:13.320Z,75.70
2017-12-16T17:44:47.127Z,75.50
2017-12-16T17:47:21.733Z,76.30
2017-12-16T17:49:56.675Z,76.30
2017-12-16T17:52:31.821Z,76.50
2017-12-16T17:55:07.093Z,76.10
2017-12-16T17:57:42.418Z,75.70
2017-12-16T18:00:16.769Z,75.70
2017-12-16T18:02:50.809Z,76.50
2017-12-16T18:05:24.649Z,76.10
2017-12-16T18:07:58.577Z,75.50
2017-12-16T18:10:32.374Z,75.30
2017-12-16T18:13:07.635Z,76.00
2017-12-16T18:15:41.645Z,75.10
2017-12-16T18:18:15.341Z,75.60
2017-12-16T18:20:49.103Z,75.50
2017-12-16T18:23:22.755Z,75.70
2017-12-16T18:25:56.541Z,75.40
2017-12-16T18:28:30.449Z,75.60
2017-12-16T18:31:05.026Z,76.00
2017-12-16T18:33:39.970Z,76.00
2017-12-16T18:36:14.161Z,75.70
2017-12-16T18:38:47.920Z,75.70
2017-12-16T18:41:21.925Z,75.60
2017-12-16T18:43:55.827Z,75.70
2017-12-16T18:46:29.798Z,75.60
2017-12-16T18:49:04.507Z,76.50
2017-12-16T18:51:38.878Z,76.20
2017-12-16T18:54:13.526Z,75.60
2017-12-16T18:56:48.199Z,75.50
2017-12-16T18:59:22.297Z,75.00
2017-12-16T19:01:56.913Z,75.20
2017-12-16T19:04:31.148Z,74.90
2017-12-16T19:07:05.264Z,74.70
2017-12-16T19:09:39.626Z,75.10
2017-12-16T19:12:14.216Z,75.50
2017-12-16T19:14:48.509Z,75.60
2017-12-16T19:17:22.847Z,75.60
2017-12-16T19:19:56.950Z,75.30
2017-12-16T19:22:30.588Z,76.70
2017-12-16T19:25:04.563Z,75.30
2017-12-16T19:27:38.946Z,75.30
2017-12-16T19:30:12.714Z,74.80
2017-12-16T19:32:46.660Z,74.70
2017-12-16T19:35:20.487Z,75.10
2017-12-16T19:37:54.340Z,75.20
2017-12-16T19:40:28.196Z,75.00
2017-12-16T19:43:02.232Z,75.20
2017-12-16T19:45:36.669Z,75.60
2017-12-16T19:48:10.605Z,75.80
2017-12-16T19:50:44.485Z,76.10
2017-12-16T19:53:18.391Z,76.60
2017-12-16T19:55:52.070Z,77.00
2017-12-16T19:58:25.981Z,77.70
2017-12-16T20:01:00.878Z,77.40
2017-12-16T20:03:35.035Z,77.70
2017-12-16T20:06:09.720Z,77.90
2017-12-16T20:08:43.677Z,78.00
2017-12-16T20:11:17.412Z,78.50
2017-12-16T20:13:51.354Z,78.20
2017-12-16T20:16:25.361Z,78.10
2017-12-16T20:19:00.245Z,78.10
2017-12-16T20:21:34.370Z,77.50
2017-12-16T20:24:08.136Z,77.30
2017-12-16T20:26:42.662Z,78.00
2017-12-16T20:29:17.085Z,78.00
2017-12-16T20:31:51.881Z,78.10
2017-12-16T20:34:27.341Z,78.20
2017-12-16T20:37:01.805Z,78.10
2017-12-16T20:39:35.657Z,78.40
2017-12-16T20:42:09.471Z,78.00
2017-12-16T20:44:44.103Z,78.40
2017-12-16T20:47:18.681Z,78.10
2017-12-16T20:49:52.588Z,77.80
2017-12-16T20:52:26.328Z,77.60
2017-12-16T20:55:00.972Z,77.20
2017-12-16T20:57:35.172Z,77.10
2017-12-16T21:00:09.027Z,77.00
2017-12-16T21:02:42.882Z,76.80
2017-12-16T21:05:16.727Z,76.50
2017-12-16T21:07:50.909Z,76.30
2017-12-16T21:10:25.411Z,76.40
2017-12-16T21:13:00.071Z,76.40
2017-12-16T21:15:34.645Z,76.10
2017-12-16T21:18:08.604Z,76.10
2017-12-16T21:20:43.321Z,76.80
2017-12-16T21:23:17.343Z,76.80
2017-12-16T21:25:51.250Z,76.80
2017-12-16T21:28:25.489Z,76.90
2017-12-16T21:31:00.081Z,76.90
2017-12-16T21:33:34.050Z,76.60
2017-12-16T21:36:07.908Z,76.70
2017-12-16T21:38:42.535Z,76.80
2017-12-16T21:41:16.550Z,76.80
2017-12-16T21:43:50.324Z,76.80
2017-12-16T21:46:24.170Z,76.20
2017-12-16T21:48:58.016Z,76.80
2017-12-16T21:51:31.742Z,76.90
2017-12-16T21:54:05.902Z,76.60
2017-12-16T21:56:41.201Z,76.10
2017-12-16T21:59:16.136Z,76.10
2017-12-16T22:01:50.828Z,76.00
2017-12-16T22:04:25.207Z,75.90
2017-12-16T22:06:59.685Z,78.60
2017-12-16T22:09:33.635Z,77.50
2017-12-16T22:12:08.276Z,77.50
2017-12-16T22:14:42.898Z,77.20
2017-12-16T22:17:17.704Z,76.90
2017-12-16T22:19:51.676Z,76.90
2017-12-16T22:22:25.441Z,76.90
2017-12-16T22:24:59.171Z,77.50
2017-12-16T22:27:32.938Z,79.00
2017-12-16T22:30:06.905Z,78.50
2017-12-16T22:32:40.949Z,79.40
2017-12-16T22:35:16.189Z,78.50
2017-12-16T22:37:51.163Z,78.50
2017-12-16T22:40:25.924Z,78.30
2017-12-16T22:43:00.394Z,78.30
2017-12-16T22:45:35.003Z,77.90
2017-12-16T22:48:08.630Z,77.50
2017-12-16T22:50:42.681Z,76.90
2017-12-16T22:53:16.483Z,77.00
2017-12-16T22:55:50.936Z,77.10
2017-12-16T22:58:24.901Z,77.00
2017-12-16T23:00:58.930Z,76.80
2017-12-16T23:03:32.769Z,76.20
2017-12-16T23:06:07.454Z,76.80
2017-12-16T23:08:41.496Z,76.50
2017-12-16T23:11:15.311Z,76.10
2017-12-16T23:13:49.117Z,75.90
2017-12-16T23:16:23.619Z,76.80
2017-12-16T23:18:57.825Z,76.30
2017-12-16T23:21:31.860Z,75.90
2017-12-16T23:24:06.413Z,76.00
2017-12-16T23:26:40.877Z,76.00
2017-12-16T23:29:15.749Z,75.90
2017-12-16T23:31:49.651Z,75.70
2017-12-16T23:34:23.353Z,75.70
2017-12-16T23:36:57.463Z,76.00
2017-12-16T23:39:31.377Z,76.00
2017-12-16T23:42:05.118Z,75.30
2017-12-16T23:44:39.288Z,75.60
2017-12-16T23:47:13.749Z,75.40
2017-12-16T23:49:47.733Z,75.80
2017-12-16T23:54:58.389Z,75.60
2017-12-16T23:57:32.314Z,75.90
